Terminal Aerodrome Forecast
Issued by NWS King Salmon, AK

Home | Current Version | Previous Version | Text Only | Print | Product List | Glossary On
Versions: 1 2 3 4 5 6 7 8 9 10 11 12 13 14 15 16 17 18 19 20
000
FTAK31 PANC 191747
TAFAKN
TAF
PAKN 191747Z 1918/2018 05010KT P6SM VCSH OVC080
     FM192300 06012G22KT P6SM SCT090 BKN100
     FM200600 02006KT P6SM BKN120=

USA.gov is the U.S. government's official web portal to all federal, state and local government web resources and services.